sensor_id;sensor_type;location;lat;lon;timestamp;pressure;altitude;pressure_sealevel;temperature;humidity
64792;BME280;51226;47.504;19.074;2023-03-18T00:00:59;100751.63;;;6.53;41.65
64792;BME280;51226;47.504;19.074;2023-03-18T00:04:05;100751.34;;;6.48;41.98
64792;BME280;51226;47.504;19.074;2023-03-18T00:07:08;100743.47;;;6.46;40.71
64792;BME280;51226;47.504;19.074;2023-03-18T00:10:13;100747.31;;;6.38;41.46
64792;BME280;51226;47.504;19.074;2023-03-18T00:13:15;100746.31;;;6.36;41.18
64792;BME280;51226;47.504;19.074;2023-03-18T00:16:20;100741.66;;;6.30;41.95
64792;BME280;51226;47.504;19.074;2023-03-18T00:19:23;100730.22;;;6.27;41.55
64792;BME280;51226;47.504;19.074;2023-03-18T00:22:27;100734.34;;;6.23;41.56
64792;BME280;51226;47.504;19.074;2023-03-18T00:25:29;100730.03;;;6.24;42.30
64792;BME280;51226;47.504;19.074;2023-03-18T00:28:33;100731.84;;;6.25;40.92
64792;BME280;51226;47.504;19.074;2023-03-18T00:31:37;100728.87;;;6.19;41.63
64792;BME280;51226;47.504;19.074;2023-03-18T00:34:40;100730.94;;;6.24;41.11
64792;BME280;51226;47.504;19.074;2023-03-18T00:37:43;100731.75;;;6.23;41.38
64792;BME280;51226;47.504;19.074;2023-03-18T00:40:47;100726.28;;;6.19;41.58
64792;BME280;51226;47.504;19.074;2023-03-18T00:44:12;100724.28;;;6.15;42.33
64792;BME280;51226;47.504;19.074;2023-03-18T00:47:16;100730.28;;;6.14;42.67
64792;BME280;51226;47.504;19.074;2023-03-18T00:50:37;100725.00;;;6.12;42.39
64792;BME280;51226;47.504;19.074;2023-03-18T00:53:41;100723.00;;;6.08;42.92
64792;BME280;51226;47.504;19.074;2023-03-18T00:56:43;100718.56;;;6.05;42.39
64792;BME280;51226;47.504;19.074;2023-03-18T00:59:47;100718.47;;;6.04;42.71
64792;BME280;51226;47.504;19.074;2023-03-18T01:02:50;100715.97;;;6.05;42.61
64792;BME280;51226;47.504;19.074;2023-03-18T01:05:53;100719.34;;;6.04;42.38
64792;BME280;51226;47.504;19.074;2023-03-18T01:08:56;100717.47;;;6.02;42.74
64792;BME280;51226;47.504;19.074;2023-03-18T01:12:00;100707.81;;;5.99;42.56
64792;BME280;51226;47.504;19.074;2023-03-18T01:15:03;100712.56;;;5.93;42.73
64792;BME280;51226;47.504;19.074;2023-03-18T01:18:08;100706.41;;;5.91;42.14
64792;BME280;51226;47.504;19.074;2023-03-18T01:21:13;100702.06;;;5.90;42.37
64792;BME280;51226;47.504;19.074;2023-03-18T01:24:16;100697.66;;;5.89;42.54
64792;BME280;51226;47.504;19.074;2023-03-18T01:27:19;100695.19;;;5.90;42.52
64792;BME280;51226;47.504;19.074;2023-03-18T01:30:23;100698.66;;;5.91;42.43
64792;BME280;51226;47.504;19.074;2023-03-18T01:33:26;100692.59;;;5.90;42.42
64792;BME280;51226;47.504;19.074;2023-03-18T01:36:31;100685.50;;;5.88;42.68
64792;BME280;51226;47.504;19.074;2023-03-18T01:39:35;100684.91;;;5.92;42.51
64792;BME280;51226;47.504;19.074;2023-03-18T01:42:39;100686.53;;;5.90;43.64
64792;BME280;51226;47.504;19.074;2023-03-18T01:45:48;100683.94;;;5.90;43.68
64792;BME280;51226;47.504;19.074;2023-03-18T01:48:52;100682.13;;;5.89;44.55
64792;BME280;51226;47.504;19.074;2023-03-18T01:51:58;100675.88;;;5.85;44.33
64792;BME280;51226;47.504;19.074;2023-03-18T01:55:10;100673.78;;;5.80;45.21
64792;BME280;51226;47.504;19.074;2023-03-18T01:58:26;100671.84;;;5.75;44.67
64792;BME280;51226;47.504;19.074;2023-03-18T02:04:54;100679.19;;;5.69;45.24
64792;BME280;51226;47.504;19.074;2023-03-18T02:07:58;100679.00;;;5.66;45.74
64792;BME280;51226;47.504;19.074;2023-03-18T02:11:02;100678.03;;;5.64;45.67
64792;BME280;51226;47.504;19.074;2023-03-18T02:14:06;100680.41;;;5.61;45.58
64792;BME280;51226;47.504;19.074;2023-03-18T02:17:14;100671.66;;;5.59;45.62
64792;BME280;51226;47.504;19.074;2023-03-18T02:20:39;100666.41;;;5.57;45.85
64792;BME280;51226;47.504;19.074;2023-03-18T02:23:53;100664.44;;;5.53;45.66
64792;BME280;51226;47.504;19.074;2023-03-18T02:27:26;100659.84;;;5.49;45.89
64792;BME280;51226;47.504;19.074;2023-03-18T02:30:36;100664.13;;;5.49;46.46
64792;BME280;51226;47.504;19.074;2023-03-18T02:33:41;100665.03;;;5.49;45.60
64792;BME280;51226;47.504;19.074;2023-03-18T02:36:44;100669.00;;;5.44;45.67
64792;BME280;51226;47.504;19.074;2023-03-18T02:39:47;100679.88;;;5.38;45.58
64792;BME280;51226;47.504;19.074;2023-03-18T02:42:51;100672.41;;;5.43;44.71
64792;BME280;51226;47.504;19.074;2023-03-18T02:46:11;100677.41;;;5.40;44.28
64792;BME280;51226;47.504;19.074;2023-03-18T02:49:17;100669.34;;;5.35;44.40
64792;BME280;51226;47.504;19.074;2023-03-18T02:52:21;100674.31;;;5.32;43.50
64792;BME280;51226;47.504;19.074;2023-03-18T02:55:24;100675.91;;;5.30;43.29
64792;BME280;51226;47.504;19.074;2023-03-18T02:58:27;100683.25;;;5.24;43.66
64792;BME280;51226;47.504;19.074;2023-03-18T03:01:31;100683.88;;;5.20;43.29
64792;BME280;51226;47.504;19.074;2023-03-18T03:04:35;100678.09;;;5.11;43.50
64792;BME280;51226;47.504;19.074;2023-03-18T03:07:38;100679.03;;;5.11;44.42
64792;BME280;51226;47.504;19.074;2023-03-18T03:10:41;100686.06;;;5.14;44.28
64792;BME280;51226;47.504;19.074;2023-03-18T03:13:45;100685.47;;;5.18;43.91
64792;BME280;51226;47.504;19.074;2023-03-18T03:16:48;100682.78;;;5.16;44.09
64792;BME280;51226;47.504;19.074;2023-03-18T03:19:51;100682.78;;;5.16;43.40
64792;BME280;51226;47.504;19.074;2023-03-18T03:22:54;100680.78;;;5.12;43.71
64792;BME280;51226;47.504;19.074;2023-03-18T03:25:57;100677.53;;;5.15;43.40
64792;BME280;51226;47.504;19.074;2023-03-18T03:29:02;100678.91;;;5.10;43.19
64792;BME280;51226;47.504;19.074;2023-03-18T03:32:06;100682.81;;;5.03;43.51
64792;BME280;51226;47.504;19.074;2023-03-18T03:35:13;100687.06;;;5.03;43.54
64792;BME280;51226;47.504;19.074;2023-03-18T03:38:16;100687.66;;;4.98;43.96
64792;BME280;51226;47.504;19.074;2023-03-18T03:41:20;100689.53;;;5.01;43.83
64792;BME280;51226;47.504;19.074;2023-03-18T03:44:23;100691.22;;;5.00;44.82
64792;BME280;51226;47.504;19.074;2023-03-18T03:47:26;100696.59;;;5.04;44.85
64792;BME280;51226;47.504;19.074;2023-03-18T03:50:29;100698.31;;;5.03;44.86
64792;BME280;51226;47.504;19.074;2023-03-18T03:53:34;100705.16;;;5.03;45.21
64792;BME280;51226;47.504;19.074;2023-03-18T03:56:38;100706.34;;;5.08;45.24
64792;BME280;51226;47.504;19.074;2023-03-18T03:59:41;100697.59;;;5.06;44.85
64792;BME280;51226;47.504;19.074;2023-03-18T04:02:45;100699.88;;;5.01;45.59
64792;BME280;51226;47.504;19.074;2023-03-18T04:05:50;100709.13;;;4.97;46.04
64792;BME280;51226;47.504;19.074;2023-03-18T04:08:54;100703.75;;;4.94;46.06
64792;BME280;51226;47.504;19.074;2023-03-18T04:11:57;100697.69;;;4.94;46.74
64792;BME280;51226;47.504;19.074;2023-03-18T04:15:00;100699.88;;;4.88;46.89
64792;BME280;51226;47.504;19.074;2023-03-18T04:18:04;100704.97;;;4.86;46.42
64792;BME280;51226;47.504;19.074;2023-03-18T04:21:09;100713.28;;;4.82;47.09
64792;BME280;51226;47.504;19.074;2023-03-18T04:24:13;100702.53;;;4.76;47.15
64792;BME280;51226;47.504;19.074;2023-03-18T04:27:18;100707.69;;;4.76;47.60
64792;BME280;51226;47.504;19.074;2023-03-18T04:30:23;100711.00;;;4.73;47.46
64792;BME280;51226;47.504;19.074;2023-03-18T04:33:28;100715.75;;;4.67;47.78
64792;BME280;51226;47.504;19.074;2023-03-18T04:36:31;100711.19;;;4.63;47.67
64792;BME280;51226;47.504;19.074;2023-03-18T04:39:34;100711.66;;;4.57;48.16
64792;BME280;51226;47.504;19.074;2023-03-18T04:42:38;100710.66;;;4.55;47.78
64792;BME280;51226;47.504;19.074;2023-03-18T04:45:42;100719.19;;;4.54;47.62
64792;BME280;51226;47.504;19.074;2023-03-18T04:48:46;100716.81;;;4.57;47.23
64792;BME280;51226;47.504;19.074;2023-03-18T04:51:49;100729.06;;;4.60;47.51
64792;BME280;51226;47.504;19.074;2023-03-18T04:54:53;100729.75;;;4.71;46.72
64792;BME280;51226;47.504;19.074;2023-03-18T04:57:56;100729.16;;;4.61;47.37
64792;BME280;51226;47.504;19.074;2023-03-18T05:01:00;100731.31;;;4.55;47.61
64792;BME280;51226;47.504;19.074;2023-03-18T05:04:04;100732.41;;;4.59;47.69
64792;BME280;51226;47.504;19.074;2023-03-18T05:07:11;100735.50;;;4.53;47.84
64792;BME280;51226;47.504;19.074;2023-03-18T05:10:16;100747.31;;;4.50;47.70
64792;BME280;51226;47.504;19.074;2023-03-18T05:13:21;100743.66;;;4.59;47.39
64792;BME280;51226;47.504;19.074;2023-03-18T05:16:24;100735.91;;;4.59;47.32
64792;BME280;51226;47.504;19.074;2023-03-18T05:19:28;100736.91;;;4.61;47.13
64792;BME280;51226;47.504;19.074;2023-03-18T05:22:31;100746.25;;;4.59;47.44
64792;BME280;51226;47.504;19.074;2023-03-18T05:25:35;100750.59;;;4.60;47.44
64792;BME280;51226;47.504;19.074;2023-03-18T05:28:38;100757.34;;;4.58;47.74
64792;BME280;51226;47.504;19.074;2023-03-18T05:31:42;100754.19;;;4.62;47.98
64792;BME280;51226;47.504;19.074;2023-03-18T05:34:45;100750.13;;;4.66;47.33
64792;BME280;51226;47.504;19.074;2023-03-18T05:37:49;100749.75;;;4.73;46.61
64792;BME280;51226;47.504;19.074;2023-03-18T05:40:52;100754.72;;;4.83;45.58
64792;BME280;51226;47.504;19.074;2023-03-18T05:43:56;100750.44;;;4.84;45.41
64792;BME280;51226;47.504;19.074;2023-03-18T05:47:01;100754.72;;;4.83;45.50
64792;BME280;51226;47.504;19.074;2023-03-18T05:50:06;100754.84;;;4.85;45.38
64792;BME280;51226;47.504;19.074;2023-03-18T05:53:09;100761.22;;;4.90;45.75
64792;BME280;51226;47.504;19.074;2023-03-18T05:56:14;100766.59;;;4.93;45.99
64792;BME280;51226;47.504;19.074;2023-03-18T05:59:18;100762.09;;;4.91;46.48
64792;BME280;51226;47.504;19.074;2023-03-18T06:02:22;100771.56;;;5.04;45.80
64792;BME280;51226;47.504;19.074;2023-03-18T06:05:27;100764.44;;;5.13;45.16
64792;BME280;51226;47.504;19.074;2023-03-18T06:08:30;100772.69;;;5.20;45.22
64792;BME280;51226;47.504;19.074;2023-03-18T06:11:33;100772.37;;;5.29;44.60
64792;BME280;51226;47.504;19.074;2023-03-18T06:14:36;100776.75;;;5.30;45.02
64792;BME280;51226;47.504;19.074;2023-03-18T06:17:40;100776.16;;;5.34;44.90
64792;BME280;51226;47.504;19.074;2023-03-18T06:20:43;100775.87;;;5.43;44.82
64792;BME280;51226;47.504;19.074;2023-03-18T06:23:46;100780.13;;;5.43;44.84
64792;BME280;51226;47.504;19.074;2023-03-18T06:26:49;100773.75;;;5.64;44.07
64792;BME280;51226;47.504;19.074;2023-03-18T06:29:53;100778.03;;;5.77;44.79
64792;BME280;51226;47.504;19.074;2023-03-18T06:32:57;100781.59;;;5.79;44.57
64792;BME280;51226;47.504;19.074;2023-03-18T06:36:01;100776.94;;;5.73;44.74
64792;BME280;51226;47.504;19.074;2023-03-18T06:39:04;100784.00;;;5.76;44.03
64792;BME280;51226;47.504;19.074;2023-03-18T06:42:08;100793.25;;;5.86;43.84
64792;BME280;51226;47.504;19.074;2023-03-18T06:45:12;100797.13;;;5.79;44.24
64792;BME280;51226;47.504;19.074;2023-03-18T06:48:18;100795.03;;;5.87;44.15
64792;BME280;51226;47.504;19.074;2023-03-18T06:51:21;100796.31;;;5.93;44.60
64792;BME280;51226;47.504;19.074;2023-03-18T06:54:24;100797.03;;;6.04;43.77
64792;BME280;51226;47.504;19.074;2023-03-18T06:57:28;100815.25;;;6.06;43.70
64792;BME280;51226;47.504;19.074;2023-03-18T07:00:32;100818.03;;;6.09;44.30
64792;BME280;51226;47.504;19.074;2023-03-18T07:03:37;100815.59;;;6.25;43.75
64792;BME280;51226;47.504;19.074;2023-03-18T07:06:41;100807.06;;;6.41;43.88
64792;BME280;51226;47.504;19.074;2023-03-18T07:09:44;100807.16;;;6.71;42.67
64792;BME280;51226;47.504;19.074;2023-03-18T07:12:48;100804.50;;;6.84;42.21
64792;BME280;51226;47.504;19.074;2023-03-18T07:15:52;100802.78;;;7.00;41.83
64792;BME280;51226;47.504;19.074;2023-03-18T07:18:58;100804.59;;;7.16;41.36
64792;BME280;51226;47.504;19.074;2023-03-18T07:22:04;100805.22;;;7.27;40.92
64792;BME280;51226;47.504;19.074;2023-03-18T07:25:08;100805.59;;;7.33;40.96
64792;BME280;51226;47.504;19.074;2023-03-18T07:28:12;100807.19;;;7.46;41.75
64792;BME280;51226;47.504;19.074;2023-03-18T07:31:15;100810.78;;;7.79;40.50
64792;BME280;51226;47.504;19.074;2023-03-18T07:34:19;100799.03;;;8.17;40.47
64792;BME280;51226;47.504;19.074;2023-03-18T07:37:23;100801.75;;;8.68;38.94
64792;BME280;51226;47.504;19.074;2023-03-18T07:40:26;100808.28;;;9.11;37.62
64792;BME280;51226;47.504;19.074;2023-03-18T07:43:28;100809.16;;;9.45;38.44
64792;BME280;51226;47.504;19.074;2023-03-18T07:46:31;100809.38;;;9.86;37.51
64792;BME280;51226;47.504;19.074;2023-03-18T07:49:34;100811.75;;;10.56;35.37
64792;BME280;51226;47.504;19.074;2023-03-18T07:52:37;100813.00;;;10.65;35.08
64792;BME280;51226;47.504;19.074;2023-03-18T07:55:40;100807.22;;;11.12;35.55
64792;BME280;51226;47.504;19.074;2023-03-18T07:58:43;100806.28;;;12.19;32.89
64792;BME280;51226;47.504;19.074;2023-03-18T08:01:46;100810.78;;;15.57;28.22
64792;BME280;51226;47.504;19.074;2023-03-18T08:04:51;100791.41;;;20.35;21.97
64792;BME280;51226;47.504;19.074;2023-03-18T08:07:54;100791.75;;;24.37;18.09
64792;BME280;51226;47.504;19.074;2023-03-18T08:10:57;100781.69;;;27.04;14.86
64792;BME280;51226;47.504;19.074;2023-03-18T08:14:01;100787.84;;;28.14;15.22
64792;BME280;51226;47.504;19.074;2023-03-18T08:17:05;100787.50;;;28.86;14.29
64792;BME280;51226;47.504;19.074;2023-03-18T08:20:07;100775.69;;;29.20;13.30
64792;BME280;51226;47.504;19.074;2023-03-18T08:23:11;100772.75;;;29.54;12.76
64792;BME280;51226;47.504;19.074;2023-03-18T08:26:14;100772.63;;;29.04;13.10
64792;BME280;51226;47.504;19.074;2023-03-18T08:29:17;100770.50;;;27.95;14.15
64792;BME280;51226;47.504;19.074;2023-03-18T08:32:20;100772.94;;;25.66;16.50
64792;BME280;51226;47.504;19.074;2023-03-18T08:35:23;100770.50;;;23.43;16.04
64792;BME280;51226;47.504;19.074;2023-03-18T08:38:27;100781.03;;;21.25;20.59
64792;BME280;51226;47.504;19.074;2023-03-18T08:41:30;100774.62;;;20.29;20.65
64792;BME280;51226;47.504;19.074;2023-03-18T08:44:33;100772.75;;;20.03;21.27
64792;BME280;51226;47.504;19.074;2023-03-18T08:47:37;100769.97;;;19.82;21.26
64792;BME280;51226;47.504;19.074;2023-03-18T08:50:40;100769.84;;;19.72;22.11
64792;BME280;51226;47.504;19.074;2023-03-18T08:53:44;100763.66;;;19.67;22.01
64792;BME280;51226;47.504;19.074;2023-03-18T08:56:46;100767.44;;;20.08;21.21
64792;BME280;51226;47.504;19.074;2023-03-18T08:59:50;100763.91;;;20.06;21.64
64792;BME280;51226;47.504;19.074;2023-03-18T09:02:53;100764.81;;;20.05;22.19
64792;BME280;51226;47.504;19.074;2023-03-18T09:05:56;100762.22;;;20.18;21.42
64792;BME280;51226;47.504;19.074;2023-03-18T09:08:59;100765.69;;;20.13;20.81
64792;BME280;51226;47.504;19.074;2023-03-18T09:12:02;100760.38;;;20.05;21.48
64792;BME280;51226;47.504;19.074;2023-03-18T09:15:08;100759.56;;;20.17;22.07
64792;BME280;51226;47.504;19.074;2023-03-18T09:18:12;100758.75;;;20.35;21.88
64792;BME280;51226;47.504;19.074;2023-03-18T09:21:16;100755.25;;;20.47;21.63
64792;BME280;51226;47.504;19.074;2023-03-18T09:24:19;100757.16;;;20.85;24.14
64792;BME280;51226;47.504;19.074;2023-03-18T09:27:22;100748.31;;;20.75;24.26
64792;BME280;51226;47.504;19.074;2023-03-18T09:30:26;100746.53;;;20.76;20.87
64792;BME280;51226;47.504;19.074;2023-03-18T09:33:29;100744.78;;;20.82;20.51
64792;BME280;51226;47.504;19.074;2023-03-18T09:36:32;100744.75;;;20.76;21.69
64792;BME280;51226;47.504;19.074;2023-03-18T09:39:35;100743.88;;;20.74;22.89
64792;BME280;51226;47.504;19.074;2023-03-18T09:42:54;100739.47;;;20.98;21.26
64792;BME280;51226;47.504;19.074;2023-03-18T09:46:27;100734.19;;;21.16;24.37
64792;BME280;51226;47.504;19.074;2023-03-18T09:52:57;100728.00;;;21.51;22.17
64792;BME280;51226;47.504;19.074;2023-03-18T09:56:05;100728.91;;;21.50;21.72
64792;BME280;51226;47.504;19.074;2023-03-18T09:59:22;100730.66;;;21.33;20.88
64792;BME280;51226;47.504;19.074;2023-03-18T10:02:32;100730.66;;;21.51;19.80
64792;BME280;51226;47.504;19.074;2023-03-18T10:05:51;100732.44;;;21.55;21.03
64792;BME280;51226;47.504;19.074;2023-03-18T10:15:43;100713.69;;;22.05;21.94
64792;BME280;51226;47.504;19.074;2023-03-18T10:18:48;100705.72;;;22.11;20.82
64792;BME280;51226;47.504;19.074;2023-03-18T10:28:52;100700.25;;;22.45;19.75
64792;BME280;51226;47.504;19.074;2023-03-18T10:35:37;100698.47;;;22.45;19.12
64792;BME280;51226;47.504;19.074;2023-03-18T10:38:47;100710.91;;;22.38;21.45
64792;BME280;51226;47.504;19.074;2023-03-18T10:41:53;100704.72;;;22.36;21.05
64792;BME280;51226;47.504;19.074;2023-03-18T10:45:08;100697.66;;;22.35;21.24
64792;BME280;51226;47.504;19.074;2023-03-18T10:48:26;100708.31;;;22.32;20.67
64792;BME280;51226;47.504;19.074;2023-03-18T10:51:49;100705.63;;;22.35;21.50
64792;BME280;51226;47.504;19.074;2023-03-18T10:54:55;100693.19;;;22.41;19.63
64792;BME280;51226;47.504;19.074;2023-03-18T10:57:58;100690.34;;;22.68;18.78
64792;BME280;51226;47.504;19.074;2023-03-18T11:01:01;100677.00;;;22.76;19.77
64792;BME280;51226;47.504;19.074;2023-03-18T11:04:08;100684.00;;;22.88;18.94
64792;BME280;51226;47.504;19.074;2023-03-18T11:07:18;100672.25;;;23.18;18.54
64792;BME280;51226;47.504;19.074;2023-03-18T11:10:24;100661.59;;;23.18;19.52
64792;BME280;51226;47.504;19.074;2023-03-18T11:13:27;100666.09;;;23.13;18.85
64792;BME280;51226;47.504;19.074;2023-03-18T11:16:44;100668.72;;;23.18;19.89
64792;BME280;51226;47.504;19.074;2023-03-18T11:20:02;100666.09;;;23.11;18.61
64792;BME280;51226;47.504;19.074;2023-03-18T11:29:28;100657.53;;;22.72;20.89
64792;BME280;51226;47.504;19.074;2023-03-18T11:32:33;100654.09;;;22.56;20.31
64792;BME280;51226;47.504;19.074;2023-03-18T11:35:44;100640.13;;;22.22;21.00
64792;BME280;51226;47.504;19.074;2023-03-18T11:39:02;100631.25;;;22.31;22.06
64792;BME280;51226;47.504;19.074;2023-03-18T11:42:20;100632.12;;;22.25;20.70
64792;BME280;51226;47.504;19.074;2023-03-18T11:48:48;100633.22;;;21.84;20.59
64792;BME280;51226;47.504;19.074;2023-03-18T11:58:41;100616.28;;;22.05;22.00
64792;BME280;51226;47.504;19.074;2023-03-18T12:12:37;100609.50;;;21.15;21.24
64792;BME280;51226;47.504;19.074;2023-03-18T12:20:17;100601.47;;;21.56;22.11
64792;BME280;51226;47.504;19.074;2023-03-18T12:23:09;100595.31;;;21.40;22.53
64792;BME280;51226;47.504;19.074;2023-03-18T12:26:43;100590.94;;;21.16;22.53
64792;BME280;51226;47.504;19.074;2023-03-18T12:33:04;100594.53;;;20.97;23.29
64792;BME280;51226;47.504;19.074;2023-03-18T12:39:52;100582.13;;;21.14;23.34
64792;BME280;51226;47.504;19.074;2023-03-18T12:43:06;100578.53;;;21.24;22.97
64792;BME280;51226;47.504;19.074;2023-03-18T12:46:32;100578.59;;;21.15;23.14
64792;BME280;51226;47.504;19.074;2023-03-18T12:49:41;100585.69;;;21.01;23.28
64792;BME280;51226;47.504;19.074;2023-03-18T12:56:18;100577.72;;;20.56;24.02
64792;BME280;51226;47.504;19.074;2023-03-18T12:59:34;100587.44;;;20.54;23.20
64792;BME280;51226;47.504;19.074;2023-03-18T13:02:45;100583.91;;;20.61;23.33
64792;BME280;51226;47.504;19.074;2023-03-18T13:06:25;100573.34;;;20.66;23.84
64792;BME280;51226;47.504;19.074;2023-03-18T13:10:02;100581.28;;;20.69;23.41
64792;BME280;51226;47.504;19.074;2023-03-18T13:13:10;100580.41;;;20.70;23.60
64792;BME280;51226;47.504;19.074;2023-03-18T13:16:15;100582.16;;;20.62;23.90
64792;BME280;51226;47.504;19.074;2023-03-18T13:19:21;100583.03;;;20.48;23.95
64792;BME280;51226;47.504;19.074;2023-03-18T13:33:14;100584.59;;;19.72;25.16
64792;BME280;51226;47.504;19.074;2023-03-18T13:39:29;100580.88;;;19.29;26.69
64792;BME280;51226;47.504;19.074;2023-03-18T13:42:36;100586.09;;;19.13;26.29
64792;BME280;51226;47.504;19.074;2023-03-18T13:45:46;100572.72;;;18.90;28.49
64792;BME280;51226;47.504;19.074;2023-03-18T13:48:57;100570.66;;;18.57;28.22
64792;BME280;51226;47.504;19.074;2023-03-18T13:52:02;100572.34;;;18.48;28.61
64792;BME280;51226;47.504;19.074;2023-03-18T13:55:19;100561.38;;;18.04;47.62
64792;BME280;51226;47.504;19.074;2023-03-18T13:58:32;100561.72;;;16.94;48.66
64792;BME280;51226;47.504;19.074;2023-03-18T14:01:57;100565.38;;;16.50;40.03
64792;BME280;51226;47.504;19.074;2023-03-18T14:05:33;100564.09;;;16.25;39.00
64792;BME280;51226;47.504;19.074;2023-03-18T14:11:47;100561.97;;;16.05;38.41
64792;BME280;51226;47.504;19.074;2023-03-18T14:17:58;100550.59;;;16.06;34.01
64792;BME280;51226;47.504;19.074;2023-03-18T14:21:04;100545.22;;;16.00;34.35
64792;BME280;51226;47.504;19.074;2023-03-18T14:24:22;100537.09;;;15.88;33.83
64792;BME280;51226;47.504;19.074;2023-03-18T14:27:25;100544.22;;;15.93;32.51
64792;BME280;51226;47.504;19.074;2023-03-18T14:33:32;100532.28;;;15.67;35.60
64792;BME280;51226;47.504;19.074;2023-03-18T14:36:46;100527.97;;;15.69;35.39
64792;BME280;51226;47.504;19.074;2023-03-18T14:40:14;100529.66;;;15.65;35.27
64792;BME280;51226;47.504;19.074;2023-03-18T14:43:34;100518.87;;;15.53;36.61
64792;BME280;51226;47.504;19.074;2023-03-18T14:46:41;100522.16;;;15.43;37.61
64792;BME280;51226;47.504;19.074;2023-03-18T14:49:54;100528.16;;;15.35;33.76
64792;BME280;51226;47.504;19.074;2023-03-18T14:53:43;100524.59;;;15.33;36.48
64792;BME280;51226;47.504;19.074;2023-03-18T14:56:54;100520.16;;;15.29;35.26
64792;BME280;51226;47.504;19.074;2023-03-18T14:59:58;100514.72;;;15.22;35.70
64792;BME280;51226;47.504;19.074;2023-03-18T15:03:07;100516.28;;;15.13;35.30
64792;BME280;51226;47.504;19.074;2023-03-18T15:06:17;100506.44;;;15.03;37.18
64792;BME280;51226;47.504;19.074;2023-03-18T15:09:25;100501.81;;;14.91;36.67
64792;BME280;51226;47.504;19.074;2023-03-18T15:12:29;100502.63;;;14.87;35.46
64792;BME280;51226;47.504;19.074;2023-03-18T15:15:34;100506.81;;;14.79;37.36
64792;BME280;51226;47.504;19.074;2023-03-18T15:18:37;100513.62;;;14.71;35.22
64792;BME280;51226;47.504;19.074;2023-03-18T15:21:41;100509.13;;;14.67;33.40
64792;BME280;51226;47.504;19.074;2023-03-18T15:24:46;100512.22;;;14.50;34.36
64792;BME280;51226;47.504;19.074;2023-03-18T15:27:52;100511.03;;;14.37;37.24
64792;BME280;51226;47.504;19.074;2023-03-18T15:30:57;100500.47;;;14.34;34.43
64792;BME280;51226;47.504;19.074;2023-03-18T15:40:53;100512.81;;;14.03;34.21
64792;BME280;51226;47.504;19.074;2023-03-18T15:43:56;100509.91;;;13.93;34.85
64792;BME280;51226;47.504;19.074;2023-03-18T15:47:16;100520.31;;;13.89;34.47
64792;BME280;51226;47.504;19.074;2023-03-18T15:50:28;100520.16;;;13.83;33.41
64792;BME280;51226;47.504;19.074;2023-03-18T15:53:41;100521.56;;;13.70;36.12
64792;BME280;51226;47.504;19.074;2023-03-18T15:56:47;100522.25;;;13.63;34.81
64792;BME280;51226;47.504;19.074;2023-03-18T15:59:52;100520.31;;;13.58;34.88
64792;BME280;51226;47.504;19.074;2023-03-18T16:02:55;100529.78;;;13.52;35.74
64792;BME280;51226;47.504;19.074;2023-03-18T16:05:59;100535.56;;;13.41;36.50
64792;BME280;51226;47.504;19.074;2023-03-18T16:12:19;100535.91;;;13.24;37.04
64792;BME280;51226;47.504;19.074;2023-03-18T16:15:24;100539.25;;;13.19;36.33
64792;BME280;51226;47.504;19.074;2023-03-18T16:18:28;100534.69;;;13.11;36.37
64792;BME280;51226;47.504;19.074;2023-03-18T16:21:30;100543.31;;;13.09;36.32
64792;BME280;51226;47.504;19.074;2023-03-18T16:24:35;100539.63;;;13.02;36.09
64792;BME280;51226;47.504;19.074;2023-03-18T16:27:38;100542.97;;;12.96;37.38
64792;BME280;51226;47.504;19.074;2023-03-18T16:30:42;100545.47;;;12.93;37.49
64792;BME280;51226;47.504;19.074;2023-03-18T16:33:44;100547.94;;;12.89;38.85
64792;BME280;51226;47.504;19.074;2023-03-18T16:36:50;100549.59;;;12.85;38.34
64792;BME280;51226;47.504;19.074;2023-03-18T16:39:53;100545.22;;;12.86;38.13
64792;BME280;51226;47.504;19.074;2023-03-18T16:42:57;100545.94;;;12.80;38.47
64792;BME280;51226;47.504;19.074;2023-03-18T16:46:01;100544.91;;;12.75;38.01
64792;BME280;51226;47.504;19.074;2023-03-18T16:49:17;100546.25;;;12.91;37.16
64792;BME280;51226;47.504;19.074;2023-03-18T16:52:20;100546.72;;;12.77;38.98
64792;BME280;51226;47.504;19.074;2023-03-18T16:55:25;100547.41;;;12.72;37.96
64792;BME280;51226;47.504;19.074;2023-03-18T16:58:31;100547.81;;;12.57;38.53
64792;BME280;51226;47.504;19.074;2023-03-18T17:01:35;100554.53;;;12.49;39.93
64792;BME280;51226;47.504;19.074;2023-03-18T17:04:38;100554.25;;;12.41;40.82
64792;BME280;51226;47.504;19.074;2023-03-18T17:07:43;100560.25;;;12.37;39.43
64792;BME280;51226;47.504;19.074;2023-03-18T17:10:47;100556.75;;;12.36;40.26
64792;BME280;51226;47.504;19.074;2023-03-18T17:13:52;100559.97;;;12.29;40.27
64792;BME280;51226;47.504;19.074;2023-03-18T17:16:56;100568.50;;;12.23;41.66
64792;BME280;51226;47.504;19.074;2023-03-18T17:20:02;100560.44;;;12.17;41.81
64792;BME280;51226;47.504;19.074;2023-03-18T17:23:05;100568.97;;;12.12;42.21
64792;BME280;51226;47.504;19.074;2023-03-18T17:26:11;100569.69;;;12.08;41.13
64792;BME280;51226;47.504;19.074;2023-03-18T17:29:26;100561.78;;;12.04;41.95
64792;BME280;51226;47.504;19.074;2023-03-18T17:32:31;100566.78;;;11.98;42.09
64792;BME280;51226;47.504;19.074;2023-03-18T17:35:34;100565.78;;;11.95;42.97
64792;BME280;51226;47.504;19.074;2023-03-18T17:38:38;100569.88;;;11.88;42.89
64792;BME280;51226;47.504;19.074;2023-03-18T17:41:41;100567.09;;;11.83;43.60
64792;BME280;51226;47.504;19.074;2023-03-18T17:44:44;100573.00;;;11.79;43.83
64792;BME280;51226;47.504;19.074;2023-03-18T17:47:47;100572.81;;;11.73;43.72